sensor_id;sensor_type;location;lat;lon;timestamp;P1;durP1;ratioP1;P2;durP2;ratioP2
7971;SDS011;4031;49.758;6.120;2023-08-12T00:01:10;9.27;;;5.77;;
7971;SDS011;4031;49.758;6.120;2023-08-12T00:03:36;6.97;;;5.50;;
7971;SDS011;4031;49.758;6.120;2023-08-12T00:06:02;5.33;;;4.83;;
7971;SDS011;4031;49.758;6.120;2023-08-12T00:08:30;6.03;;;5.20;;
7971;SDS011;4031;49.758;6.120;2023-08-12T00:10:56;5.40;;;4.90;;
7971;SDS011;4031;49.758;6.120;2023-08-12T00:13:22;7.30;;;4.40;;
7971;SDS011;4031;49.758;6.120;2023-08-12T00:15:47;5.40;;;4.90;;
7971;SDS011;4031;49.758;6.120;2023-08-12T00:18:13;7.10;;;5.27;;
7971;SDS011;4031;49.758;6.120;2023-08-12T00:20:39;5.73;;;4.50;;
7971;SDS011;4031;49.758;6.120;2023-08-12T00:23:05;8.30;;;6.00;;
7971;SDS011;4031;49.758;6.120;2023-08-12T00:25:30;5.77;;;5.27;;
7971;SDS011;4031;49.758;6.120;2023-08-12T00:27:56;11.40;;;5.23;;
7971;SDS011;4031;49.758;6.120;2023-08-12T00:30:22;8.10;;;5.50;;
7971;SDS011;4031;49.758;6.120;2023-08-12T00:32:47;7.30;;;5.10;;
7971;SDS011;4031;49.758;6.120;2023-08-12T00:35:13;4.90;;;4.07;;
7971;SDS011;4031;49.758;6.120;2023-08-12T00:37:39;8.50;;;4.50;;
7971;SDS011;4031;49.758;6.120;2023-08-12T00:40:04;10.37;;;4.87;;
7971;SDS011;4031;49.758;6.120;2023-08-12T00:42:31;5.27;;;4.87;;
7971;SDS011;4031;49.758;6.120;2023-08-12T00:44:57;7.10;;;5.23;;
7971;SDS011;4031;49.758;6.120;2023-08-12T00:47:23;5.70;;;4.80;;
7971;SDS011;4031;49.758;6.120;2023-08-12T00:49:49;6.07;;;4.90;;
7971;SDS011;4031;49.758;6.120;2023-08-12T00:52:15;5.93;;;4.43;;
7971;SDS011;4031;49.758;6.120;2023-08-12T00:54:42;8.43;;;4.43;;
7971;SDS011;4031;49.758;6.120;2023-08-12T00:57:08;6.13;;;5.27;;
7971;SDS011;4031;49.758;6.120;2023-08-12T00:59:35;7.17;;;4.77;;
7971;SDS011;4031;49.758;6.120;2023-08-12T01:02:04;7.87;;;4.13;;
7971;SDS011;4031;49.758;6.120;2023-08-12T01:04:30;6.30;;;4.77;;
7971;SDS011;4031;49.758;6.120;2023-08-12T01:06:56;7.90;;;4.23;;
7971;SDS011;4031;49.758;6.120;2023-08-12T01:09:22;5.10;;;4.00;;
7971;SDS011;4031;49.758;6.120;2023-08-12T01:14:45;6.77;;;4.17;;
7971;SDS011;4031;49.758;6.120;2023-08-12T01:17:22;4.00;;;3.60;;
7971;SDS011;4031;49.758;6.120;2023-08-12T01:19:49;6.43;;;4.60;;
7971;SDS011;4031;49.758;6.120;2023-08-12T01:22:16;5.17;;;4.37;;
7971;SDS011;4031;49.758;6.120;2023-08-12T01:24:45;5.33;;;4.40;;
7971;SDS011;4031;49.758;6.120;2023-08-12T01:27:11;3.97;;;3.60;;
7971;SDS011;4031;49.758;6.120;2023-08-12T01:29:42;4.67;;;4.27;;
7971;SDS011;4031;49.758;6.120;2023-08-12T01:37:51;5.03;;;4.23;;
7971;SDS011;4031;49.758;6.120;2023-08-12T01:40:18;5.90;;;3.83;;
7971;SDS011;4031;49.758;6.120;2023-08-12T01:42:45;5.03;;;4.47;;
7971;SDS011;4031;49.758;6.120;2023-08-12T01:45:11;7.97;;;4.20;;
7971;SDS011;4031;49.758;6.120;2023-08-12T01:47:37;7.93;;;4.63;;
7971;SDS011;4031;49.758;6.120;2023-08-12T01:50:03;5.00;;;4.50;;
7971;SDS011;4031;49.758;6.120;2023-08-12T01:52:30;5.27;;;3.80;;
7971;SDS011;4031;49.758;6.120;2023-08-12T01:54:55;4.67;;;4.27;;
7971;SDS011;4031;49.758;6.120;2023-08-12T01:57:21;4.60;;;4.20;;
7971;SDS011;4031;49.758;6.120;2023-08-12T01:59:47;9.83;;;5.00;;
7971;SDS011;4031;49.758;6.120;2023-08-12T02:02:12;6.30;;;4.17;;
7971;SDS011;4031;49.758;6.120;2023-08-12T02:04:39;4.40;;;3.77;;
7971;SDS011;4031;49.758;6.120;2023-08-12T02:07:07;4.27;;;3.87;;
7971;SDS011;4031;49.758;6.120;2023-08-12T02:09:33;5.73;;;4.30;;
7971;SDS011;4031;49.758;6.120;2023-08-12T02:11:59;5.80;;;4.30;;
7971;SDS011;4031;49.758;6.120;2023-08-12T02:14:24;6.53;;;4.47;;
7971;SDS011;4031;49.758;6.120;2023-08-12T02:16:50;7.40;;;4.70;;
7971;SDS011;4031;49.758;6.120;2023-08-12T02:19:16;5.63;;;4.20;;
7971;SDS011;4031;49.758;6.120;2023-08-12T02:21:42;4.90;;;4.40;;
7971;SDS011;4031;49.758;6.120;2023-08-12T02:24:08;6.20;;;4.67;;
7971;SDS011;4031;49.758;6.120;2023-08-12T02:26:34;5.67;;;4.93;;
7971;SDS011;4031;49.758;6.120;2023-08-12T02:29:00;6.47;;;5.00;;
7971;SDS011;4031;49.758;6.120;2023-08-12T02:31:26;4.90;;;4.30;;
7971;SDS011;4031;49.758;6.120;2023-08-12T02:33:51;6.40;;;5.17;;
7971;SDS011;4031;49.758;6.120;2023-08-12T02:36:17;8.33;;;4.30;;
7971;SDS011;4031;49.758;6.120;2023-08-12T02:38:43;5.10;;;4.13;;
7971;SDS011;4031;49.758;6.120;2023-08-12T02:41:09;6.93;;;4.00;;
7971;SDS011;4031;49.758;6.120;2023-08-12T02:43:34;6.20;;;4.80;;
7971;SDS011;4031;49.758;6.120;2023-08-12T02:46:00;6.30;;;4.33;;
7971;SDS011;4031;49.758;6.120;2023-08-12T02:48:26;5.60;;;4.60;;
7971;SDS011;4031;49.758;6.120;2023-08-12T02:50:52;5.30;;;4.67;;
7971;SDS011;4031;49.758;6.120;2023-08-12T02:53:17;12.70;;;4.83;;
7971;SDS011;4031;49.758;6.120;2023-08-12T02:55:46;6.93;;;5.13;;
7971;SDS011;4031;49.758;6.120;2023-08-12T02:58:12;9.90;;;4.90;;
7971;SDS011;4031;49.758;6.120;2023-08-12T03:00:40;8.50;;;5.60;;
7971;SDS011;4031;49.758;6.120;2023-08-12T03:03:08;8.03;;;5.67;;
7971;SDS011;4031;49.758;6.120;2023-08-12T03:05:35;7.13;;;5.27;;
7971;SDS011;4031;49.758;6.120;2023-08-12T03:08:01;8.67;;;4.80;;
7971;SDS011;4031;49.758;6.120;2023-08-12T03:10:28;8.17;;;4.60;;
7971;SDS011;4031;49.758;6.120;2023-08-12T03:12:54;4.57;;;4.13;;
7971;SDS011;4031;49.758;6.120;2023-08-12T03:15:20;6.63;;;4.47;;
7971;SDS011;4031;49.758;6.120;2023-08-12T03:17:46;4.30;;;3.50;;
7971;SDS011;4031;49.758;6.120;2023-08-12T03:20:12;5.30;;;4.00;;
7971;SDS011;4031;49.758;6.120;2023-08-12T03:22:37;4.63;;;4.07;;
7971;SDS011;4031;49.758;6.120;2023-08-12T03:25:04;9.53;;;4.10;;
7971;SDS011;4031;49.758;6.120;2023-08-12T03:27:30;8.07;;;3.93;;
7971;SDS011;4031;49.758;6.120;2023-08-12T03:29:56;9.20;;;4.80;;
7971;SDS011;4031;49.758;6.120;2023-08-12T03:32:23;7.43;;;4.23;;
7971;SDS011;4031;49.758;6.120;2023-08-12T03:34:50;5.03;;;4.33;;
7971;SDS011;4031;49.758;6.120;2023-08-12T03:37:16;5.27;;;4.03;;
7971;SDS011;4031;49.758;6.120;2023-08-12T03:39:42;9.00;;;4.67;;
7971;SDS011;4031;49.758;6.120;2023-08-12T03:42:07;8.77;;;3.70;;
7971;SDS011;4031;49.758;6.120;2023-08-12T03:44:33;4.80;;;3.77;;
7971;SDS011;4031;49.758;6.120;2023-08-12T03:46:59;7.17;;;4.30;;
7971;SDS011;4031;49.758;6.120;2023-08-12T03:49:25;5.50;;;3.77;;
7971;SDS011;4031;49.758;6.120;2023-08-12T03:51:50;5.73;;;3.83;;
7971;SDS011;4031;49.758;6.120;2023-08-12T03:54:16;6.70;;;4.33;;
7971;SDS011;4031;49.758;6.120;2023-08-12T03:56:42;6.50;;;3.60;;
7971;SDS011;4031;49.758;6.120;2023-08-12T03:59:07;5.70;;;4.23;;
7971;SDS011;4031;49.758;6.120;2023-08-12T04:01:33;3.57;;;3.27;;
7971;SDS011;4031;49.758;6.120;2023-08-12T04:03:59;7.87;;;4.60;;
7971;SDS011;4031;49.758;6.120;2023-08-12T04:06:26;5.90;;;4.10;;
7971;SDS011;4031;49.758;6.120;2023-08-12T04:08:51;5.13;;;4.20;;
7971;SDS011;4031;49.758;6.120;2023-08-12T04:11:17;5.97;;;4.43;;
7971;SDS011;4031;49.758;6.120;2023-08-12T04:13:43;4.00;;;3.60;;
7971;SDS011;4031;49.758;6.120;2023-08-12T04:16:08;5.50;;;4.63;;
7971;SDS011;4031;49.758;6.120;2023-08-12T04:18:34;8.10;;;5.40;;
7971;SDS011;4031;49.758;6.120;2023-08-12T04:21:00;6.27;;;4.93;;
7971;SDS011;4031;49.758;6.120;2023-08-12T04:23:26;6.00;;;5.17;;
7971;SDS011;4031;49.758;6.120;2023-08-12T04:25:52;6.50;;;5.07;;
7971;SDS011;4031;49.758;6.120;2023-08-12T04:28:19;7.67;;;5.13;;
7971;SDS011;4031;49.758;6.120;2023-08-12T04:30:45;16.70;;;5.50;;
7971;SDS011;4031;49.758;6.120;2023-08-12T04:33:13;9.77;;;4.70;;
7971;SDS011;4031;49.758;6.120;2023-08-12T04:35:39;9.33;;;5.60;;
7971;SDS011;4031;49.758;6.120;2023-08-12T04:38:06;5.77;;;4.00;;
7971;SDS011;4031;49.758;6.120;2023-08-12T04:40:32;5.50;;;4.37;;
7971;SDS011;4031;49.758;6.120;2023-08-12T04:42:58;7.00;;;5.03;;
7971;SDS011;4031;49.758;6.120;2023-08-12T04:45:24;6.50;;;5.37;;
7971;SDS011;4031;49.758;6.120;2023-08-12T04:47:50;5.20;;;4.70;;
7971;SDS011;4031;49.758;6.120;2023-08-12T04:50:16;8.60;;;5.07;;
7971;SDS011;4031;49.758;6.120;2023-08-12T04:52:41;8.00;;;5.20;;
7971;SDS011;4031;49.758;6.120;2023-08-12T04:55:07;6.43;;;5.83;;
7971;SDS011;4031;49.758;6.120;2023-08-12T04:57:35;7.67;;;5.33;;
7971;SDS011;4031;49.758;6.120;2023-08-12T05:00:01;8.03;;;5.80;;
7971;SDS011;4031;49.758;6.120;2023-08-12T05:02:28;6.33;;;5.40;;
7971;SDS011;4031;49.758;6.120;2023-08-12T05:04:54;8.47;;;5.90;;
7971;SDS011;4031;49.758;6.120;2023-08-12T05:07:20;8.63;;;5.80;;
7971;SDS011;4031;49.758;6.120;2023-08-12T05:09:45;8.67;;;5.57;;
7971;SDS011;4031;49.758;6.120;2023-08-12T05:12:11;8.63;;;4.93;;
7971;SDS011;4031;49.758;6.120;2023-08-12T05:14:38;5.17;;;4.03;;
7971;SDS011;4031;49.758;6.120;2023-08-12T05:17:05;6.40;;;5.20;;
7971;SDS011;4031;49.758;6.120;2023-08-12T05:19:31;5.83;;;5.27;;
7971;SDS011;4031;49.758;6.120;2023-08-12T05:21:57;7.50;;;5.50;;
7971;SDS011;4031;49.758;6.120;2023-08-12T05:24:22;7.40;;;5.33;;
7971;SDS011;4031;49.758;6.120;2023-08-12T05:26:48;5.87;;;4.67;;
7971;SDS011;4031;49.758;6.120;2023-08-12T05:29:14;6.37;;;4.63;;
7971;SDS011;4031;49.758;6.120;2023-08-12T05:31:40;7.70;;;5.47;;
7971;SDS011;4031;49.758;6.120;2023-08-12T05:34:05;6.73;;;4.83;;
7971;SDS011;4031;49.758;6.120;2023-08-12T05:36:31;5.67;;;4.70;;
7971;SDS011;4031;49.758;6.120;2023-08-12T05:38:57;7.77;;;5.50;;
7971;SDS011;4031;49.758;6.120;2023-08-12T05:41:23;8.43;;;5.60;;
7971;SDS011;4031;49.758;6.120;2023-08-12T05:43:49;5.80;;;5.20;;
7971;SDS011;4031;49.758;6.120;2023-08-12T05:46:14;6.80;;;5.17;;
7971;SDS011;4031;49.758;6.120;2023-08-12T05:48:40;7.50;;;5.93;;
7971;SDS011;4031;49.758;6.120;2023-08-12T05:51:06;5.87;;;4.87;;
7971;SDS011;4031;49.758;6.120;2023-08-12T05:53:32;5.93;;;5.33;;
7971;SDS011;4031;49.758;6.120;2023-08-12T05:56:00;7.30;;;5.00;;
7971;SDS011;4031;49.758;6.120;2023-08-12T05:58:26;8.73;;;4.90;;
7971;SDS011;4031;49.758;6.120;2023-08-12T06:00:51;5.07;;;4.57;;
7971;SDS011;4031;49.758;6.120;2023-08-12T06:03:17;5.17;;;4.57;;
7971;SDS011;4031;49.758;6.120;2023-08-12T06:05:44;5.90;;;4.67;;
7971;SDS011;4031;49.758;6.120;2023-08-12T06:08:11;4.93;;;4.43;;
7971;SDS011;4031;49.758;6.120;2023-08-12T06:10:38;6.30;;;4.93;;
7971;SDS011;4031;49.758;6.120;2023-08-12T06:13:03;5.73;;;4.03;;
7971;SDS011;4031;49.758;6.120;2023-08-12T06:15:29;6.33;;;4.53;;
7971;SDS011;4031;49.758;6.120;2023-08-12T06:17:55;5.47;;;4.17;;
7971;SDS011;4031;49.758;6.120;2023-08-12T06:20:22;4.23;;;3.63;;
7971;SDS011;4031;49.758;6.120;2023-08-12T06:22:49;3.93;;;3.63;;
7971;SDS011;4031;49.758;6.120;2023-08-12T06:25:16;5.60;;;4.33;;
7971;SDS011;4031;49.758;6.120;2023-08-12T06:27:43;4.30;;;3.90;;
7971;SDS011;4031;49.758;6.120;2023-08-12T06:30:09;4.87;;;3.53;;
7971;SDS011;4031;49.758;6.120;2023-08-12T06:32:36;4.80;;;3.60;;
7971;SDS011;4031;49.758;6.120;2023-08-12T06:35:02;4.60;;;3.70;;
7971;SDS011;4031;49.758;6.120;2023-08-12T06:37:29;4.27;;;3.87;;
7971;SDS011;4031;49.758;6.120;2023-08-12T06:39:54;6.67;;;5.10;;
7971;SDS011;4031;49.758;6.120;2023-08-12T06:42:20;4.43;;;3.90;;
7971;SDS011;4031;49.758;6.120;2023-08-12T06:44:53;7.87;;;3.40;;
7971;SDS011;4031;49.758;6.120;2023-08-12T06:47:22;7.53;;;3.47;;
7971;SDS011;4031;49.758;6.120;2023-08-12T06:49:48;6.47;;;3.03;;
7971;SDS011;4031;49.758;6.120;2023-08-12T06:52:14;3.87;;;3.20;;
7971;SDS011;4031;49.758;6.120;2023-08-12T06:54:41;4.43;;;2.80;;
7971;SDS011;4031;49.758;6.120;2023-08-12T06:57:07;2.83;;;2.63;;
7971;SDS011;4031;49.758;6.120;2023-08-12T06:59:33;3.27;;;2.97;;
7971;SDS011;4031;49.758;6.120;2023-08-12T07:01:58;3.47;;;3.17;;
7971;SDS011;4031;49.758;6.120;2023-08-12T07:04:24;3.13;;;2.93;;
7971;SDS011;4031;49.758;6.120;2023-08-12T07:06:50;3.00;;;2.80;;
7971;SDS011;4031;49.758;6.120;2023-08-12T07:09:16;3.10;;;2.80;;
7971;SDS011;4031;49.758;6.120;2023-08-12T07:11:41;2.77;;;2.57;;
7971;SDS011;4031;49.758;6.120;2023-08-12T07:14:07;3.33;;;3.00;;
7971;SDS011;4031;49.758;6.120;2023-08-12T07:16:33;4.43;;;2.87;;
7971;SDS011;4031;49.758;6.120;2023-08-12T07:18:58;2.90;;;2.70;;
7971;SDS011;4031;49.758;6.120;2023-08-12T07:21:24;2.63;;;2.40;;
7971;SDS011;4031;49.758;6.120;2023-08-12T07:23:50;2.90;;;2.70;;
7971;SDS011;4031;49.758;6.120;2023-08-12T07:26:16;3.90;;;2.57;;
7971;SDS011;4031;49.758;6.120;2023-08-12T07:28:41;3.07;;;2.70;;
7971;SDS011;4031;49.758;6.120;2023-08-12T07:31:07;2.33;;;2.00;;
7971;SDS011;4031;49.758;6.120;2023-08-12T07:33:33;4.10;;;2.50;;
7971;SDS011;4031;49.758;6.120;2023-08-12T07:35:59;2.53;;;2.33;;
7971;SDS011;4031;49.758;6.120;2023-08-12T07:38:26;2.50;;;2.20;;
7971;SDS011;4031;49.758;6.120;2023-08-12T07:40:51;5.40;;;2.60;;
7971;SDS011;4031;49.758;6.120;2023-08-12T07:43:17;2.50;;;2.30;;
7971;SDS011;4031;49.758;6.120;2023-08-12T07:45:43;4.30;;;2.17;;
7971;SDS011;4031;49.758;6.120;2023-08-12T07:48:08;2.47;;;2.27;;
7971;SDS011;4031;49.758;6.120;2023-08-12T07:50:34;2.70;;;2.27;;
7971;SDS011;4031;49.758;6.120;2023-08-12T07:53:00;5.93;;;2.57;;
7971;SDS011;4031;49.758;6.120;2023-08-12T07:55:26;3.43;;;3.23;;
7971;SDS011;4031;49.758;6.120;2023-08-12T07:57:52;2.60;;;2.33;;
7971;SDS011;4031;49.758;6.120;2023-08-12T08:00:18;3.10;;;2.50;;
7971;SDS011;4031;49.758;6.120;2023-08-12T08:02:44;2.60;;;2.40;;
7971;SDS011;4031;49.758;6.120;2023-08-12T08:05:10;8.37;;;3.40;;
7971;SDS011;4031;49.758;6.120;2023-08-12T08:07:36;3.47;;;2.87;;
7971;SDS011;4031;49.758;6.120;2023-08-12T08:10:02;6.43;;;3.40;;
7971;SDS011;4031;49.758;6.120;2023-08-12T08:12:27;2.57;;;2.40;;
7971;SDS011;4031;49.758;6.120;2023-08-12T08:14:53;3.47;;;3.17;;
7971;SDS011;4031;49.758;6.120;2023-08-12T08:17:19;2.60;;;2.40;;
7971;SDS011;4031;49.758;6.120;2023-08-12T08:19:45;5.27;;;3.10;;
7971;SDS011;4031;49.758;6.120;2023-08-12T08:22:10;4.60;;;3.00;;
7971;SDS011;4031;49.758;6.120;2023-08-12T08:24:36;2.53;;;2.30;;
7971;SDS011;4031;49.758;6.120;2023-08-12T08:27:02;2.83;;;2.63;;
7971;SDS011;4031;49.758;6.120;2023-08-12T08:29:29;4.83;;;2.93;;
7971;SDS011;4031;49.758;6.120;2023-08-12T08:31:55;4.00;;;3.33;;
7971;SDS011;4031;49.758;6.120;2023-08-12T08:34:21;4.70;;;3.80;;
7971;SDS011;4031;49.758;6.120;2023-08-12T08:36:46;3.80;;;3.37;;
7971;SDS011;4031;49.758;6.120;2023-08-12T08:39:12;4.80;;;3.70;;
7971;SDS011;4031;49.758;6.120;2023-08-12T08:41:38;5.70;;;3.30;;
7971;SDS011;4031;49.758;6.120;2023-08-12T08:44:06;4.07;;;3.53;;
7971;SDS011;4031;49.758;6.120;2023-08-12T08:46:33;4.10;;;3.70;;
7971;SDS011;4031;49.758;6.120;2023-08-12T08:49:00;4.07;;;3.67;;
7971;SDS011;4031;49.758;6.120;2023-08-12T08:51:26;3.33;;;3.03;;
7971;SDS011;4031;49.758;6.120;2023-08-12T08:53:57;5.20;;;3.80;;
7971;SDS011;4031;49.758;6.120;2023-08-12T08:56:23;3.87;;;3.57;;
7971;SDS011;4031;49.758;6.120;2023-08-12T08:58:49;4.93;;;4.10;;
7971;SDS011;4031;49.758;6.120;2023-08-12T09:01:16;4.27;;;3.70;;
7971;SDS011;4031;49.758;6.120;2023-08-12T09:03:45;5.60;;;3.90;;
7971;SDS011;4031;49.758;6.120;2023-08-12T09:06:11;4.20;;;3.70;;
7971;SDS011;4031;49.758;6.120;2023-08-12T09:08:38;4.57;;;3.90;;
7971;SDS011;4031;49.758;6.120;2023-08-12T09:11:10;5.07;;;3.97;;
7971;SDS011;4031;49.758;6.120;2023-08-12T09:13:38;4.13;;;3.40;;
7971;SDS011;4031;49.758;6.120;2023-08-12T09:16:04;3.97;;;3.67;;
7971;SDS011;4031;49.758;6.120;2023-08-12T09:18:30;3.60;;;3.03;;
7971;SDS011;4031;49.758;6.120;2023-08-12T09:20:56;4.03;;;3.10;;
7971;SDS011;4031;49.758;6.120;2023-08-12T09:23:22;2.77;;;2.57;;
7971;SDS011;4031;49.758;6.120;2023-08-12T09:25:48;3.60;;;3.30;;
7971;SDS011;4031;49.758;6.120;2023-08-12T09:28:14;2.63;;;2.23;;
7971;SDS011;4031;49.758;6.120;2023-08-12T09:30:40;3.57;;;2.60;;
7971;SDS011;4031;49.758;6.120;2023-08-12T09:33:07;2.63;;;2.20;;
7971;SDS011;4031;49.758;6.120;2023-08-12T09:35:34;2.43;;;2.23;;
7971;SDS011;4031;49.758;6.120;2023-08-12T09:38:06;2.47;;;2.00;;
7971;SDS011;4031;49.758;6.120;2023-08-12T09:40:36;2.67;;;2.00;;
7971;SDS011;4031;49.758;6.120;2023-08-12T09:43:02;2.17;;;1.97;;
7971;SDS011;4031;49.758;6.120;2023-08-12T09:45:29;2.67;;;2.40;;
7971;SDS011;4031;49.758;6.120;2023-08-12T09:47:56;2.40;;;2.07;;
7971;SDS011;4031;49.758;6.120;2023-08-12T09:50:22;5.97;;;2.40;;
7971;SDS011;4031;49.758;6.120;2023-08-12T09:52:50;2.93;;;2.60;;
7971;SDS011;4031;49.758;6.120;2023-08-12T09:55:17;2.33;;;2.13;;
7971;SDS011;4031;49.758;6.120;2023-08-12T09:57:48;4.67;;;2.73;;
7971;SDS011;4031;49.758;6.120;2023-08-12T10:00:17;2.90;;;2.50;;
7971;SDS011;4031;49.758;6.120;2023-08-12T10:02:46;3.00;;;2.53;;
7971;SDS011;4031;49.758;6.120;2023-08-12T10:05:16;2.87;;;2.50;;
7971;SDS011;4031;49.758;6.120;2023-08-12T10:07:47;3.27;;;2.97;;
7971;SDS011;4031;49.758;6.120;2023-08-12T10:10:14;3.50;;;2.50;;
7971;SDS011;4031;49.758;6.120;2023-08-12T10:12:40;4.57;;;2.73;;
7971;SDS011;4031;49.758;6.120;2023-08-12T10:15:07;3.20;;;2.90;;
7971;SDS011;4031;49.758;6.120;2023-08-12T10:17:34;4.03;;;3.00;;
7971;SDS011;4031;49.758;6.120;2023-08-12T10:20:00;4.00;;;2.20;;
7971;SDS011;4031;49.758;6.120;2023-08-12T10:22:33;2.53;;;2.33;;
7971;SDS011;4031;49.758;6.120;2023-08-12T10:25:03;3.37;;;2.47;;
7971;SDS011;4031;49.758;6.120;2023-08-12T10:27:29;2.87;;;2.60;;
7971;SDS011;4031;49.758;6.120;2023-08-12T10:29:56;3.80;;;2.90;;
7971;SDS011;4031;49.758;6.120;2023-08-12T10:32:23;4.80;;;2.33;;
7971;SDS011;4031;49.758;6.120;2023-08-12T10:34:55;2.63;;;2.43;;
7971;SDS011;4031;49.758;6.120;2023-08-12T10:37:26;2.40;;;2.03;;
7971;SDS011;4031;49.758;6.120;2023-08-12T10:39:55;2.37;;;2.17;;
7971;SDS011;4031;49.758;6.120;2023-08-12T10:42:40;1.93;;;1.83;;
7971;SDS011;4031;49.758;6.120;2023-08-12T10:45:10;2.33;;;1.87;;
7971;SDS011;4031;49.758;6.120;2023-08-12T10:47:41;2.00;;;1.70;;
7971;SDS011;4031;49.758;6.120;2023-08-12T10:50:22;5.33;;;2.20;;
7971;SDS011;4031;49.758;6.120;2023-08-12T10:52:51;2.53;;;1.77;;
7971;SDS011;4031;49.758;6.120;2023-08-12T10:57:46;2.07;;;1.83;;
7971;SDS011;4031;49.758;6.120;2023-08-12T11:00:19;2.30;;;2.10;;
7971;SDS011;4031;49.758;6.120;2023-08-12T11:02:53;2.57;;;1.80;;
7971;SDS011;4031;49.758;6.120;2023-08-12T11:05:21;2.30;;;2.10;;
7971;SDS011;4031;49.758;6.120;2023-08-12T11:07:48;2.53;;;1.63;;
7971;SDS011;4031;49.758;6.120;2023-08-12T11:10:22;3.37;;;1.60;;
7971;SDS011;4031;49.758;6.120;2023-08-12T11:12:54;3.23;;;1.80;;
7971;SDS011;4031;49.758;6.120;2023-08-12T11:15:32;2.13;;;2.03;;
7971;SDS011;4031;49.758;6.120;2023-08-12T11:18:06;1.93;;;1.53;;
7971;SDS011;4031;49.758;6.120;2023-08-12T11:20:33;2.10;;;2.00;;
7971;SDS011;4031;49.758;6.120;2023-08-12T11:23:00;1.80;;;1.70;;
7971;SDS011;4031;49.758;6.120;2023-08-12T11:25:28;2.83;;;2.13;;
7971;SDS011;4031;49.758;6.120;2023-08-12T11:27:56;1.90;;;1.70;;
7971;SDS011;4031;49.758;6.120;2023-08-12T11:30:22;2.30;;;1.70;;
7971;SDS011;4031;49.758;6.120;2023-08-12T11:32:49;1.90;;;1.73;;
7971;SDS011;4031;49.758;6.120;2023-08-12T11:35:17;1.73;;;1.63;;
7971;SDS011;4031;49.758;6.120;2023-08-12T11:37:46;2.40;;;1.63;;
7971;SDS011;4031;49.758;6.120;2023-08-12T11:40:14;2.20;;;1.90;;
7971;SDS011;4031;49.758;6.120;2023-08-12T11:42:42;4.30;;;1.83;;
7971;SDS011;4031;49.758;6.120;2023-08-12T11:45:10;2.10;;;1.90;;
7971;SDS011;4031;49.758;6.120;2023-08-12T11:47:37;2.03;;;1.60;;
7971;SDS011;4031;49.758;6.120;2023-08-12T11:50:05;2.77;;;1.90;;
7971;SDS011;4031;49.758;6.120;2023-08-12T11:52:33;1.63;;;1.43;;
7971;SDS011;4031;49.758;6.120;2023-08-12T11:55:00;3.50;;;2.03;;
7971;SDS011;4031;49.758;6.120;2023-08-12T11:57:26;5.83;;;1.83;;
7971;SDS011;4031;49.758;6.120;2023-08-12T11:59:57;2.50;;;2.20;;
7971;SDS011;4031;49.758;6.120;2023-08-12T12:02:30;2.37;;;1.70;;
7971;SDS011;4031;49.758;6.120;2023-08-12T12:04:55;1.60;;;1.50;;
7971;SDS011;4031;49.758;6.120;2023-08-12T12:07:25;1.93;;;1.73;;
7971;SDS011;4031;49.758;6.120;2023-08-12T12:09:52;3.73;;;2.07;;
7971;SDS011;4031;49.758;6.120;2023-08-12T12:12:25;3.17;;;1.97;;
7971;SDS011;4031;49.758;6.120;2023-08-12T12:14:52;4.87;;;2.10;;
7971;SDS011;4031;49.758;6.120;2023-08-12T12:17:20;2.10;;;1.90;;
7971;SDS011;4031;49.758;6.120;2023-08-12T12:19:51;3.13;;;2.57;;
7971;SDS011;4031;49.758;6.120;2023-08-12T12:22:30;3.37;;;2.63;;
7971;SDS011;4031;49.758;6.120;2023-08-12T12:24:58;2.27;;;2.07;;
7971;SDS011;4031;49.758;6.120;2023-08-12T12:27:26;2.93;;;2.13;;
7971;SDS011;4031;49.758;6.120;2023-08-12T12:29:52;5.03;;;1.97;;
7971;SDS011;4031;49.758;6.120;2023-08-12T12:32:19;3.00;;;2.07;;
7971;SDS011;4031;49.758;6.120;2023-08-12T12:34:45;2.10;;;1.60;;
7971;SDS011;4031;49.758;6.120;2023-08-12T12:37:11;1.60;;;1.50;;
7971;SDS011;4031;49.758;6.120;2023-08-12T12:39:38;4.33;;;2.30;;
7971;SDS011;4031;49.758;6.120;2023-08-12T12:42:04;2.10;;;1.90;;
7971;SDS011;4031;49.758;6.120;2023-08-12T12:44:30;3.87;;;1.97;;
7971;SDS011;4031;49.758;6.120;2023-08-12T12:46:56;2.53;;;1.57;;
7971;SDS011;4031;49.758;6.120;2023-08-12T12:49:22;3.50;;;1.70;;
7971;SDS011;4031;49.758;6.120;2023-08-12T12:51:48;1.60;;;1.50;;
7971;SDS011;4031;49.758;6.120;2023-08-12T12:54:14;2.43;;;1.80;;
7971;SDS011;4031;49.758;6.120;2023-08-12T12:56:40;1.60;;;1.50;;
7971;SDS011;4031;49.758;6.120;2023-08-12T12:59:05;1.70;;;1.60;;
7971;SDS011;4031;49.758;6.120;2023-08-12T13:01:31;1.50;;;1.20;;
7971;SDS011;4031;49.758;6.120;2023-08-12T13:03:57;1.63;;;1.00;;
7971;SDS011;4031;49.758;6.120;2023-08-12T13:06:22;1.23;;;1.10;;
7971;SDS011;4031;49.758;6.120;2023-08-12T13:08:48;1.77;;;1.60;;
7971;SDS011;4031;49.758;6.120;2023-08-12T13:11:14;1.83;;;1.60;;
7971;SDS011;4031;49.758;6.120;2023-08-12T13:13:40;1.30;;;1.20;;
7971;SDS011;4031;49.758;6.120;2023-08-12T13:16:06;1.87;;;1.60;;
7971;SDS011;4031;49.758;6.120;2023-08-12T13:18:33;1.83;;;1.53;;
7971;SDS011;4031;49.758;6.120;2023-08-12T13:20:59;1.70;;;1.60;;
7971;SDS011;4031;49.758;6.120;2023-08-12T13:23:25;1.07;;;1.00;;
7971;SDS011;4031;49.758;6.120;2023-08-12T13:25:51;1.40;;;0.83;;
7971;SDS011;4031;49.758;6.120;2023-08-12T13:28:17;1.40;;;1.30;;
7971;SDS011;4031;49.758;6.120;2023-08-12T13:30:44;1.77;;;1.47;;
7971;SDS011;4031;49.758;6.120;2023-08-12T13:33:10;1.33;;;1.13;;
7971;SDS011;4031;49.758;6.120;2023-08-12T13:35:37;1.90;;;1.47;;
7971;SDS011;4031;49.758;6.120;2023-08-12T13:38:03;3.27;;;1.40;;
7971;SDS011;4031;49.758;6.120;2023-08-12T13:40:29;1.63;;;1.30;;
7971;SDS011;4031;49.758;6.120;2023-08-12T13:42:55;1.70;;;1.40;;
7971;SDS011;4031;49.758;6.120;2023-08-12T13:45:21;2.00;;;1.40;;
7971;SDS011;4031;49.758;6.120;2023-08-12T13:47:47;1.33;;;1.20;;
7971;SDS011;4031;49.758;6.120;2023-08-12T13:50:13;1.50;;;1.30;;
7971;SDS011;4031;49.758;6.120;2023-08-12T13:52:39;2.43;;;1.40;;
7971;SDS011;4031;49.758;6.120;2023-08-12T13:55:05;1.50;;;1.40;;
7971;SDS011;4031;49.758;6.120;2023-08-12T13:57:31;1.57;;;1.37;;
7971;SDS011;4031;49.758;6.120;2023-08-12T13:59:57;4.03;;;1.27;;
7971;SDS011;4031;49.758;6.120;2023-08-12T14:02:23;1.53;;;1.43;;
7971;SDS011;4031;49.758;6.120;2023-08-12T14:04:49;3.97;;;1.63;;
7971;SDS011;4031;49.758;6.120;2023-08-12T14:07:15;1.30;;;1.20;;
7971;SDS011;4031;49.758;6.120;2023-08-12T14:09:41;1.00;;;0.80;;
7971;SDS011;4031;49.758;6.120;2023-08-12T14:12:07;1.73;;;1.30;;
7971;SDS011;4031;49.758;6.120;2023-08-12T14:14:33;1.37;;;1.00;;
7971;SDS011;4031;49.758;6.120;2023-08-12T14:16:58;1.30;;;1.10;;
7971;SDS011;4031;49.758;6.120;2023-08-12T14:19:24;3.13;;;1.10;;
7971;SDS011;4031;49.758;6.120;2023-08-12T14:21:50;1.40;;;1.30;;
7971;SDS011;4031;49.758;6.120;2023-08-12T14:24:15;1.40;;;1.20;;
7971;SDS011;4031;49.758;6.120;2023-08-12T14:26:41;1.73;;;1.27;;
7971;SDS011;4031;49.758;6.120;2023-08-12T14:29:07;1.20;;;1.00;;
7971;SDS011;4031;49.758;6.120;2023-08-12T14:31:33;1.57;;;1.10;;
7971;SDS011;4031;49.758;6.120;2023-08-12T14:33:59;1.43;;;0.97;;
7971;SDS011;4031;49.758;6.120;2023-08-12T14:36:26;0.97;;;0.87;;
7971;SDS011;4031;49.758;6.120;2023-08-12T14:38:52;0.83;;;0.80;;
7971;SDS011;4031;49.758;6.120;2023-08-12T14:41:18;0.80;;;0.80;;
7971;SDS011;4031;49.758;6.120;2023-08-12T14:43:44;0.80;;;0.80;;
7971;SDS011;4031;49.758;6.120;2023-08-12T14:46:10;1.20;;;0.83;;
7971;SDS011;4031;49.758;6.120;2023-08-12T14:48:35;1.37;;;1.17;;
7971;SDS011;4031;49.758;6.120;2023-08-12T14:51:01;1.13;;;0.67;;
7971;SDS011;4031;49.758;6.120;2023-08-12T14:53:27;0.87;;;0.60;;
7971;SDS011;4031;49.758;6.120;2023-08-12T14:55:53;0.90;;;0.70;;
7971;SDS011;4031;49.758;6.120;2023-08-12T14:58:18;2.33;;;0.73;;
7971;SDS011;4031;49.758;6.120;2023-08-12T15:00:46;0.60;;;0.60;;
7971;SDS011;4031;49.758;6.120;2023-08-12T15:03:12;1.00;;;0.60;;
7971;SDS011;4031;49.758;6.120;2023-08-12T15:05:39;0.70;;;0.60;;
7971;SDS011;4031;49.758;6.120;2023-08-12T15:08:05;0.80;;;0.53;;
7971;SDS011;4031;49.758;6.120;2023-08-12T15:10:31;0.60;;;0.53;;
7971;SDS011;4031;49.758;6.120;2023-08-12T15:12:57;0.60;;;0.60;;
7971;SDS011;4031;49.758;6.120;2023-08-12T15:15:23;2.80;;;0.77;;
7971;SDS011;4031;49.758;6.120;2023-08-12T15:17:49;0.80;;;0.80;;
7971;SDS011;4031;49.758;6.120;2023-08-12T15:20:15;0.83;;;0.70;;
7971;SDS011;4031;49.758;6.120;2023-08-12T15:22:41;0.60;;;0.50;;